createdAt,value
2023-04-02T00:02:36.089Z,8.70
2023-04-02T00:05:20.860Z,8.70
2023-04-02T00:07:49.022Z,8.70
2023-04-02T00:10:34.928Z,8.70
2023-04-02T00:13:23.683Z,8.80
2023-04-02T00:15:53.242Z,8.70
2023-04-02T00:18:21.507Z,8.70
2023-04-02T00:20:53.828Z,8.70
2023-04-02T00:23:23.230Z,8.70
2023-04-02T00:25:49.947Z,8.70
2023-04-02T00:28:18.018Z,8.70
2023-04-02T00:30:49.282Z,8.70
2023-04-02T00:35:41.347Z,8.80
2023-04-02T00:38:10.296Z,8.80
2023-04-02T00:40:39.705Z,8.80
2023-04-02T00:43:06.808Z,8.80
2023-04-02T00:45:36.644Z,8.80
2023-04-02T00:48:16.436Z,8.80
2023-04-02T00:50:44.656Z,8.80
2023-04-02T00:53:16.670Z,8.80
2023-04-02T00:55:43.752Z,8.80
2023-04-02T00:58:34.165Z,8.70
2023-04-02T01:01:01.119Z,8.80
2023-04-02T01:03:29.124Z,8.70
2023-04-02T01:05:57.639Z,8.70
2023-04-02T01:08:44.064Z,8.70
2023-04-02T01:11:23.451Z,8.70
2023-04-02T01:13:55.635Z,8.70
2023-04-02T01:16:38.335Z,8.60
2023-04-02T01:19:08.604Z,8.60
2023-04-02T01:21:45.977Z,8.60
2023-04-02T01:24:13.595Z,8.70
2023-04-02T01:26:44.589Z,8.60
2023-04-02T01:29:20.313Z,8.60
2023-04-02T01:31:47.653Z,8.60
2023-04-02T01:34:16.581Z,8.60
2023-04-02T01:36:56.250Z,8.60
2023-04-02T01:39:40.518Z,8.60
2023-04-02T01:42:10.279Z,8.60
2023-04-02T01:44:42.986Z,8.60
2023-04-02T01:47:14.142Z,8.60
2023-04-02T01:49:42.465Z,8.70
2023-04-02T01:52:13.541Z,8.70
2023-04-02T01:54:41.130Z,8.70
2023-04-02T01:57:08.342Z,8.60
2023-04-02T01:59:35.706Z,8.60
2023-04-02T02:02:13.458Z,8.60
2023-04-02T02:04:40.607Z,8.60
2023-04-02T02:07:14.363Z,8.60
2023-04-02T02:09:41.496Z,8.60
2023-04-02T02:12:10.397Z,8.70
2023-04-02T02:14:36.954Z,8.70
2023-04-02T02:17:04.834Z,8.70
2023-04-02T02:19:36.706Z,8.70
2023-04-02T02:22:23.531Z,8.70
2023-04-02T02:24:50.435Z,8.70
2023-04-02T02:27:17.009Z,8.70
2023-04-02T02:29:45.588Z,8.80
2023-04-02T02:32:13.272Z,8.80
2023-04-02T02:34:43.361Z,8.70
2023-04-02T02:37:16.350Z,8.70
2023-04-02T02:39:48.196Z,8.70
2023-04-02T02:42:18.041Z,8.80
2023-04-02T02:44:45.901Z,8.70
2023-04-02T02:47:15.197Z,8.80
2023-04-02T02:49:43.206Z,8.80
2023-04-02T02:52:09.799Z,8.80
2023-04-02T02:54:37.784Z,8.80
2023-04-02T02:57:06.308Z,8.80
2023-04-02T02:59:33.495Z,8.80
2023-04-02T03:02:01.549Z,8.80
2023-04-02T03:04:30.580Z,8.80
2023-04-02T03:06:58.042Z,8.80
2023-04-02T03:09:39.327Z,8.80
2023-04-02T03:12:05.916Z,8.80
2023-04-02T03:14:38.202Z,8.80
2023-04-02T03:17:30.898Z,8.80
2023-04-02T03:19:57.592Z,8.80
2023-04-02T03:22:31.902Z,8.80
2023-04-02T03:25:18.776Z,8.80
2023-04-02T03:27:47.393Z,8.80
2023-04-02T03:30:13.888Z,8.80
2023-04-02T03:32:42.454Z,8.80
2023-04-02T03:35:09.121Z,8.80
2023-04-02T03:37:43.604Z,8.80
2023-04-02T03:40:23.202Z,8.80
2023-04-02T03:42:53.146Z,8.80
2023-04-02T03:45:33.278Z,8.80
2023-04-02T03:48:06.785Z,8.80
2023-04-02T03:50:33.456Z,8.80
2023-04-02T03:53:06.812Z,8.80
2023-04-02T03:55:36.955Z,8.80
2023-04-02T03:58:24.014Z,8.70
2023-04-02T04:00:56.519Z,8.70
2023-04-02T04:03:26.786Z,8.60
2023-04-02T04:05:56.420Z,8.60
2023-04-02T04:08:26.336Z,8.60
2023-04-02T04:10:56.027Z,8.60
2023-04-02T04:13:28.719Z,8.50
2023-04-02T04:15:59.098Z,8.50
2023-04-02T04:18:29.713Z,8.50
2023-04-02T04:21:01.144Z,8.50
2023-04-02T04:23:30.509Z,8.40
2023-04-02T04:26:09.512Z,8.40
2023-04-02T04:28:41.461Z,8.30
2023-04-02T04:31:20.795Z,8.30
2023-04-02T04:33:50.620Z,8.30
2023-04-02T04:36:29.209Z,8.30
2023-04-02T04:38:59.468Z,8.30
2023-04-02T04:41:32.252Z,8.20
2023-04-02T04:44:05.891Z,8.20
2023-04-02T04:46:47.116Z,8.10
2023-04-02T04:49:22.476Z,8.10
2023-04-02T04:51:54.748Z,8.00
2023-04-02T04:54:30.142Z,8.00
2023-04-02T04:57:01.949Z,8.00
2023-04-02T04:59:36.034Z,7.90
2023-04-02T05:02:15.823Z,7.90
2023-04-02T05:04:43.556Z,7.80
2023-04-02T05:07:20.883Z,7.80
2023-04-02T05:10:04.283Z,7.80
2023-04-02T05:12:40.480Z,7.80
2023-04-02T05:15:18.840Z,7.80
2023-04-02T05:18:01.010Z,7.80
2023-04-02T05:20:35.560Z,7.90
2023-04-02T05:23:05.993Z,7.80
2023-04-02T05:25:35.467Z,7.90
2023-04-02T05:28:29.348Z,7.80
2023-04-02T05:30:59.645Z,7.80
2023-04-02T05:33:39.682Z,7.70
2023-04-02T05:36:11.667Z,7.60
2023-04-02T05:38:39.868Z,7.60
2023-04-02T05:41:11.741Z,7.50
2023-04-02T05:43:39.087Z,7.60
2023-04-02T05:46:13.633Z,7.60
2023-04-02T05:48:41.101Z,7.50
2023-04-02T05:51:09.853Z,7.50
2023-04-02T05:53:55.350Z,7.50
2023-04-02T05:56:25.207Z,7.40
2023-04-02T05:59:04.653Z,7.40
2023-04-02T06:01:35.349Z,7.40
2023-04-02T06:04:02.027Z,7.40
2023-04-02T06:06:43.956Z,7.30
2023-04-02T06:09:29.036Z,7.30
2023-04-02T06:12:19.206Z,7.30
2023-04-02T06:14:45.972Z,7.30
2023-04-02T06:17:16.178Z,7.30
2023-04-02T06:19:43.354Z,7.30
2023-04-02T06:22:31.395Z,7.30
2023-04-02T06:25:00.568Z,7.30
2023-04-02T06:27:27.503Z,7.30
2023-04-02T06:29:56.396Z,7.30
2023-04-02T06:32:24.330Z,7.30
2023-04-02T06:34:53.892Z,7.20
2023-04-02T06:37:23.389Z,7.30
2023-04-02T06:39:50.353Z,7.20
2023-04-02T06:42:21.219Z,7.20
2023-04-02T06:44:48.205Z,7.20
2023-04-02T06:47:18.799Z,7.20
2023-04-02T06:50:03.957Z,7.20
2023-04-02T06:52:35.049Z,7.20
2023-04-02T06:55:05.482Z,7.10
2023-04-02T06:57:35.686Z,7.10
2023-04-02T07:00:02.485Z,7.10
2023-04-02T07:02:32.325Z,7.10
2023-04-02T07:05:02.036Z,7.00
2023-04-02T07:07:28.765Z,7.00
2023-04-02T07:09:55.378Z,7.00
2023-04-02T07:12:23.310Z,6.90
2023-04-02T07:14:49.886Z,6.80
2023-04-02T07:17:20.792Z,6.80
2023-04-02T07:19:49.560Z,6.80
2023-04-02T07:22:19.486Z,6.80
2023-04-02T07:24:46.363Z,6.80
2023-04-02T07:27:14.154Z,6.80
2023-04-02T07:29:42.898Z,6.80
2023-04-02T07:32:10.643Z,6.80
2023-04-02T07:34:37.649Z,6.80
2023-04-02T07:37:04.246Z,6.70
2023-04-02T07:39:31.072Z,6.80
2023-04-02T07:41:58.910Z,6.70
2023-04-02T07:44:25.455Z,6.70
2023-04-02T07:46:52.119Z,6.80
2023-04-02T07:49:18.662Z,6.80
2023-04-02T07:51:45.368Z,6.80
2023-04-02T07:54:12.999Z,6.80
2023-04-02T07:56:39.616Z,6.90
2023-04-02T07:59:06.256Z,6.80
2023-04-02T08:01:35.458Z,6.90
2023-04-02T08:04:02.887Z,7.00
2023-04-02T08:06:30.138Z,7.00
2023-04-02T08:08:57.461Z,7.10
2023-04-02T08:11:24.246Z,7.00
2023-04-02T08:13:51.918Z,7.00
2023-04-02T08:16:18.502Z,7.00
2023-04-02T08:18:47.452Z,7.00
2023-04-02T08:21:16.353Z,6.90
2023-04-02T08:23:43.437Z,7.00
2023-04-02T08:26:10.478Z,7.00
2023-04-02T08:28:37.092Z,7.00
2023-04-02T08:31:04.719Z,7.10
2023-04-02T08:33:31.543Z,7.20
2023-04-02T08:35:58.267Z,7.30
2023-04-02T08:38:24.978Z,7.20
2023-04-02T08:40:52.816Z,7.20
2023-04-02T08:43:26.700Z,7.20
2023-04-02T08:46:12.086Z,7.20
2023-04-02T08:48:42.610Z,7.20
2023-04-02T08:51:19.249Z,7.20
2023-04-02T08:53:46.394Z,7.10
2023-04-02T08:56:19.016Z,7.10
2023-04-02T08:58:48.267Z,7.10
2023-04-02T09:01:44.327Z,7.00
2023-04-02T09:04:15.557Z,7.10
2023-04-02T09:06:43.810Z,7.20
2023-04-02T09:09:12.348Z,7.20
2023-04-02T09:11:47.732Z,7.20
2023-04-02T09:14:19.187Z,7.30
2023-04-02T09:16:46.845Z,7.20
2023-04-02T09:19:15.418Z,7.20
2023-04-02T09:21:43.939Z,7.20
2023-04-02T09:24:13.060Z,7.10
2023-04-02T09:26:39.596Z,7.20
2023-04-02T09:29:12.096Z,7.20
2023-04-02T09:31:40.054Z,7.20
2023-04-02T09:34:25.311Z,7.30
2023-04-02T09:36:52.073Z,7.30
2023-04-02T09:39:19.548Z,7.30
2023-04-02T09:41:55.841Z,7.30
2023-04-02T09:44:32.107Z,7.30
2023-04-02T09:47:00.299Z,7.40
2023-04-02T09:49:28.460Z,7.40
2023-04-02T09:52:08.838Z,7.40
2023-04-02T09:54:41.686Z,7.40
2023-04-02T09:57:21.088Z,7.30
2023-04-02T09:59:47.705Z,7.20
2023-04-02T10:02:24.711Z,7.20
2023-04-02T10:07:43.934Z,7.20
2023-04-02T10:10:16.677Z,7.10
2023-04-02T10:12:45.644Z,7.20
2023-04-02T10:15:16.305Z,7.40
2023-04-02T10:17:43.851Z,7.20
2023-04-02T10:20:18.999Z,7.30
2023-04-02T10:22:46.773Z,7.40
2023-04-02T10:25:17.055Z,7.40
2023-04-02T10:27:49.753Z,7.60
2023-04-02T10:30:39.065Z,7.70
2023-04-02T10:33:12.552Z,7.60
2023-04-02T10:35:57.450Z,7.40
2023-04-02T10:38:29.976Z,7.50
2023-04-02T10:41:18.251Z,7.50
2023-04-02T10:43:51.123Z,7.40
2023-04-02T10:46:29.890Z,7.40
2023-04-02T10:48:56.537Z,7.60
2023-04-02T10:51:33.730Z,7.70
2023-04-02T10:54:06.532Z,7.70
2023-04-02T10:56:41.017Z,7.60
2023-04-02T10:59:19.578Z,7.50
2023-04-02T11:01:51.086Z,7.40
2023-04-02T11:04:19.747Z,7.40
2023-04-02T11:06:58.012Z,7.40
2023-04-02T11:09:32.196Z,7.60
2023-04-02T11:12:00.256Z,7.60
2023-04-02T11:14:27.851Z,7.50
2023-04-02T11:16:55.250Z,7.60
2023-04-02T11:19:32.360Z,7.60
2023-04-02T11:22:01.469Z,7.60
2023-04-02T11:24:36.959Z,7.70
2023-04-02T11:27:04.901Z,7.80
2023-04-02T11:29:32.578Z,7.80
2023-04-02T11:32:17.635Z,8.00
2023-04-02T11:34:44.093Z,8.00
2023-04-02T11:37:29.408Z,8.30
2023-04-02T11:39:58.123Z,8.30
2023-04-02T11:42:26.450Z,8.40
2023-04-02T11:44:53.682Z,8.50
2023-04-02T11:47:22.661Z,8.60
2023-04-02T11:49:57.594Z,8.50
2023-04-02T11:52:51.502Z,8.40
2023-04-02T11:55:24.275Z,8.60
2023-04-02T11:57:56.106Z,8.90
2023-04-02T12:00:39.403Z,8.90
2023-04-02T12:03:20.415Z,8.90
2023-04-02T12:05:50.320Z,8.70
2023-04-02T12:08:24.053Z,8.80
2023-04-02T12:10:58.647Z,8.80
2023-04-02T12:13:40.546Z,8.90
2023-04-02T12:16:14.290Z,8.90
2023-04-02T12:18:48.157Z,9.00
2023-04-02T12:21:16.230Z,9.00
2023-04-02T12:23:44.830Z,9.00
2023-04-02T12:26:30.284Z,8.90
2023-04-02T12:29:15.578Z,8.90
2023-04-02T12:31:46.401Z,8.90
2023-04-02T12:34:17.526Z,8.80
2023-04-02T12:36:54.412Z,8.70
2023-04-02T12:39:21.265Z,8.60
2023-04-02T12:41:47.895Z,8.60
2023-04-02T12:44:22.062Z,8.60
2023-04-02T12:46:49.821Z,8.50
2023-04-02T12:49:16.718Z,8.40
2023-04-02T12:51:43.322Z,8.30
2023-04-02T12:54:14.825Z,8.40
2023-04-02T12:56:41.350Z,8.20
2023-04-02T12:59:27.004Z,8.30
2023-04-02T13:01:58.820Z,8.30
2023-04-02T13:04:25.450Z,8.40
2023-04-02T13:06:54.963Z,8.40
2023-04-02T13:09:30.107Z,8.30
2023-04-02T13:11:56.965Z,8.20
2023-04-02T13:14:24.336Z,8.30
2023-04-02T13:16:52.140Z,8.30
2023-04-02T13:19:18.697Z,8.20
2023-04-02T13:21:45.955Z,8.10
2023-04-02T13:24:22.620Z,8.20
2023-04-02T13:26:50.029Z,8.20
2023-04-02T13:29:22.607Z,8.40
2023-04-02T13:31:49.685Z,8.40
2023-04-02T13:34:17.830Z,8.30
2023-04-02T13:36:44.763Z,8.30
2023-04-02T13:39:11.337Z,8.50
2023-04-02T13:41:40.832Z,8.60
2023-04-02T13:44:07.599Z,8.60
2023-04-02T13:46:34.717Z,8.70
2023-04-02T13:49:01.682Z,8.80
2023-04-02T13:51:36.392Z,8.70
2023-04-02T13:54:07.380Z,8.70
2023-04-02T13:56:33.909Z,8.60
2023-04-02T13:59:00.561Z,8.50
2023-04-02T14:01:27.322Z,8.40
2023-04-02T14:03:54.888Z,8.40
2023-04-02T14:06:32.892Z,8.60
2023-04-02T14:09:11.913Z,8.50
2023-04-02T14:11:38.397Z,8.20
2023-04-02T14:14:24.059Z,8.00
2023-04-02T14:17:09.310Z,8.10
2023-04-02T14:19:45.417Z,8.10
2023-04-02T14:22:20.771Z,8.10
2023-04-02T14:25:01.775Z,8.10
2023-04-02T14:27:31.078Z,8.00
2023-04-02T14:29:57.652Z,7.90
2023-04-02T14:32:28.523Z,7.90
2023-04-02T14:35:13.776Z,7.90
2023-04-02T14:37:40.384Z,7.90
2023-04-02T14:40:13.123Z,8.00
2023-04-02T14:42:39.676Z,7.90
2023-04-02T14:45:06.390Z,7.80
2023-04-02T14:47:41.337Z,7.90
2023-04-02T14:50:18.662Z,7.90
2023-04-02T14:52:47.389Z,8.00
2023-04-02T14:55:32.869Z,7.90
2023-04-02T14:58:01.409Z,7.90
2023-04-02T15:00:35.540Z,7.90
2023-04-02T15:03:02.223Z,7.90
2023-04-02T15:05:48.581Z,7.90
2023-04-02T15:08:30.458Z,8.00
2023-04-02T15:11:04.247Z,8.00
2023-04-02T15:13:37.738Z,7.90
2023-04-02T15:16:13.549Z,7.70
2023-04-02T15:18:40.606Z,7.70
2023-04-02T15:21:07.187Z,7.70
2023-04-02T15:23:52.446Z,7.70
2023-04-02T15:26:21.885Z,7.80
2023-04-02T15:28:48.443Z,7.80
2023-04-02T15:31:15.151Z,7.80
2023-04-02T15:33:43.320Z,7.80
2023-04-02T15:36:12.822Z,7.70
2023-04-02T15:38:44.864Z,7.70
2023-04-02T15:41:15.246Z,7.70
2023-04-02T15:43:44.659Z,7.70
2023-04-02T15:46:29.831Z,7.60
2023-04-02T15:48:56.505Z,7.60
2023-04-02T15:51:35.226Z,7.60
2023-04-02T15:54:21.074Z,7.50
2023-04-02T15:56:52.331Z,7.50
2023-04-02T15:59:30.633Z,7.50
2023-04-02T16:01:59.513Z,7.40
2023-04-02T16:04:29.064Z,7.50
2023-04-02T16:06:55.638Z,7.40
2023-04-02T16:09:23.383Z,7.40
2023-04-02T16:11:58.031Z,7.40
2023-04-02T16:14:27.196Z,7.40
2023-04-02T16:17:03.879Z,7.30
2023-04-02T16:19:36.433Z,7.30
2023-04-02T16:22:06.180Z,7.40
2023-04-02T16:24:32.847Z,7.40
2023-04-02T16:27:18.308Z,7.40
2023-04-02T16:29:55.417Z,7.40
2023-04-02T16:32:42.105Z,7.40
2023-04-02T16:35:41.971Z,7.40
2023-04-02T16:38:21.223Z,7.30
2023-04-02T16:41:04.772Z,7.40
2023-04-02T16:43:42.439Z,7.30
2023-04-02T16:46:10.193Z,7.30
2023-04-02T16:48:49.017Z,7.30
2023-04-02T16:51:22.368Z,7.20
2023-04-02T16:54:04.270Z,7.20
2023-04-02T16:56:50.339Z,7.20
2023-04-02T16:59:25.313Z,7.20
2023-04-02T17:02:15.699Z,7.10
2023-04-02T17:04:51.596Z,7.10
2023-04-02T17:07:28.642Z,7.10
2023-04-02T17:10:15.485Z,7.00
2023-04-02T17:12:46.627Z,7.00
2023-04-02T17:15:24.879Z,6.90
2023-04-02T17:17:58.328Z,6.90
2023-04-02T17:20:25.569Z,6.90
2023-04-02T17:22:52.986Z,6.90
2023-04-02T17:25:31.485Z,6.90
2023-04-02T17:27:58.081Z,6.80
2023-04-02T17:30:37.417Z,6.80
2023-04-02T17:33:14.530Z,6.80
2023-04-02T17:35:59.463Z,6.80
2023-04-02T17:38:31.918Z,6.70
2023-04-02T17:41:04.935Z,6.70
2023-04-02T17:43:36.479Z,6.60
2023-04-02T17:46:21.079Z,6.60
2023-04-02T17:48:48.562Z,6.60
2023-04-02T17:51:18.862Z,6.50
2023-04-02T17:54:04.001Z,6.50
2023-04-02T17:56:30.769Z,6.50
2023-04-02T17:59:16.309Z,6.50
2023-04-02T18:02:01.532Z,6.50
2023-04-02T18:04:36.236Z,6.40
2023-04-02T18:07:10.534Z,6.40
2023-04-02T18:09:37.281Z,6.40
2023-04-02T18:12:16.616Z,6.30
2023-04-02T18:17:45.046Z,6.30
2023-04-02T18:20:30.503Z,6.20
2023-04-02T18:23:07.071Z,6.10
2023-04-02T18:25:43.529Z,6.10
2023-04-02T18:28:10.081Z,6.00
2023-04-02T18:30:37.436Z,6.00
2023-04-02T18:33:07.224Z,6.00
2023-04-02T18:35:36.924Z,5.90
2023-04-02T18:38:13.392Z,5.90
2023-04-02T18:41:00.718Z,5.90
2023-04-02T18:43:39.038Z,5.90
2023-04-02T18:46:10.442Z,5.90
2023-04-02T18:48:41.028Z,5.90
2023-04-02T18:51:12.582Z,6.00
2023-04-02T18:53:40.768Z,6.00
2023-04-02T18:56:11.978Z,6.00
2023-04-02T18:58:49.278Z,6.10
2023-04-02T19:01:18.328Z,6.10
2023-04-02T19:03:50.163Z,6.20
2023-04-02T19:06:21.159Z,6.10
2023-04-02T19:08:50.881Z,6.20
2023-04-02T19:11:18.471Z,6.20
2023-04-02T19:13:45.473Z,6.20
2023-04-02T19:16:12.034Z,6.10
2023-04-02T19:18:45.419Z,6.20
2023-04-02T19:21:30.416Z,6.20
2023-04-02T19:24:03.137Z,6.20
2023-04-02T19:26:38.597Z,6.20
2023-04-02T19:29:15.719Z,6.20
2023-04-02T19:31:42.249Z,6.20
2023-04-02T19:34:17.144Z,6.10
2023-04-02T19:36:48.696Z,6.20
2023-04-02T19:39:27.880Z,6.20
2023-04-02T19:42:01.493Z,6.20
2023-04-02T19:44:28.245Z,6.20
2023-04-02T19:47:04.491Z,6.10
2023-04-02T19:49:33.505Z,6.10
2023-04-02T19:52:00.407Z,6.10
2023-04-02T19:54:27.000Z,6.10
2023-04-02T19:56:53.565Z,6.10
2023-04-02T19:59:20.244Z,6.10
2023-04-02T20:01:47.513Z,6.10
2023-04-02T20:04:29.055Z,6.10
2023-04-02T20:06:55.720Z,6.10
2023-04-02T20:09:22.400Z,6.00
2023-04-02T20:11:48.981Z,6.00
2023-04-02T20:14:15.533Z,6.00
2023-04-02T20:16:44.537Z,6.00
2023-04-02T20:19:12.377Z,6.00
2023-04-02T20:21:39.049Z,6.00
2023-04-02T20:24:06.979Z,6.00
2023-04-02T20:26:34.414Z,5.90
2023-04-02T20:29:01.069Z,5.90
2023-04-02T20:31:27.856Z,5.80
2023-04-02T20:33:56.176Z,5.80
2023-04-02T20:36:24.548Z,5.80
2023-04-02T20:38:51.584Z,5.80
2023-04-02T20:41:18.548Z,5.80
2023-04-02T20:43:45.176Z,5.70
2023-04-02T20:46:12.542Z,5.80
2023-04-02T20:48:39.292Z,5.70
2023-04-02T20:51:07.977Z,5.70
2023-04-02T20:53:35.403Z,5.70
2023-04-02T20:56:12.542Z,5.60
2023-04-02T20:58:39.719Z,5.60
2023-04-02T21:01:11.224Z,5.60
2023-04-02T21:03:40.075Z,5.60
2023-04-02T21:06:11.964Z,5.60
2023-04-02T21:08:38.536Z,5.60
2023-04-02T21:11:05.815Z,5.50
2023-04-02T21:13:33.218Z,5.60
2023-04-02T21:16:00.152Z,5.50
2023-04-02T21:18:26.809Z,5.50
2023-04-02T21:20:57.557Z,5.60
2023-04-02T21:23:24.208Z,5.50
2023-04-02T21:25:54.794Z,5.50
2023-04-02T21:28:21.321Z,5.50
2023-04-02T21:30:47.870Z,5.40
2023-04-02T21:33:14.395Z,5.40
2023-04-02T21:35:41.044Z,5.40
2023-04-02T21:38:07.675Z,5.40
2023-04-02T21:40:34.198Z,5.40
2023-04-02T21:43:00.763Z,5.40
2023-04-02T21:45:27.350Z,5.40
2023-04-02T21:47:54.029Z,5.40
2023-04-02T21:50:20.871Z,5.40
2023-04-02T21:52:49.526Z,5.40
2023-04-02T21:55:16.281Z,5.30
2023-04-02T21:57:42.951Z,5.30
2023-04-02T22:00:12.366Z,5.20
2023-04-02T22:02:38.991Z,5.10
2023-04-02T22:05:06.125Z,5.10
2023-04-02T22:07:32.761Z,5.00
2023-04-02T22:09:59.476Z,5.00
2023-04-02T22:12:26.085Z,5.00
2023-04-02T22:14:52.845Z,5.00
2023-04-02T22:17:19.633Z,5.00
2023-04-02T22:19:46.302Z,4.90
2023-04-02T22:22:12.933Z,4.80
2023-04-02T22:24:39.564Z,4.70
2023-04-02T22:27:06.165Z,4.60
2023-04-02T22:29:33.608Z,4.50
2023-04-02T22:32:00.514Z,4.50
2023-04-02T22:34:27.255Z,4.60
2023-04-02T22:36:53.901Z,4.60
2023-04-02T22:39:20.945Z,4.50
2023-04-02T22:41:47.523Z,4.50
2023-04-02T22:44:16.359Z,4.40
2023-04-02T22:46:43.164Z,4.50
2023-04-02T22:49:11.031Z,4.40
2023-04-02T22:51:37.666Z,4.30
2023-04-02T22:54:04.333Z,4.30
2023-04-02T22:56:35.368Z,4.30
2023-04-02T22:59:01.956Z,4.30
2023-04-02T23:01:30.530Z,4.20
2023-04-02T23:03:59.581Z,4.20
2023-04-02T23:06:26.362Z,4.30
2023-04-02T23:08:53.057Z,4.30
2023-04-02T23:11:23.704Z,4.40
2023-04-02T23:13:54.123Z,4.50
2023-04-02T23:16:22.522Z,4.60
2023-04-02T23:18:49.229Z,4.50
2023-04-02T23:21:16.387Z,4.50
2023-04-02T23:23:43.171Z,4.50
2023-04-02T23:26:11.258Z,4.50
2023-04-02T23:28:38.772Z,4.50
2023-04-02T23:31:06.015Z,4.50
2023-04-02T23:33:32.900Z,4.50
2023-04-02T23:35:59.695Z,4.50
2023-04-02T23:38:26.649Z,4.50
2023-04-02T23:40:53.483Z,4.50
2023-04-02T23:43:20.241Z,4.50
2023-04-02T23:45:47.912Z,4.60
2023-04-02T23:48:14.622Z,4.50
2023-04-02T23:50:41.354Z,4.50
2023-04-02T23:53:07.990Z,4.50
2023-04-02T23:55:34.508Z,4.50
2023-04-02T23:58:01.072Z,4.50
